sensor_id;sensor_type;location;lat;lon;timestamp;P1;durP1;ratioP1;P2;durP2;ratioP2
26756;SDS011;23848;49.798;10.228;2022-10-16T01:20:13;1.60;;;0.95;;
26756;SDS011;23848;49.798;10.228;2022-10-16T01:31:35;2.50;;;1.35;;
26756;SDS011;23848;49.798;10.228;2022-10-16T01:41:25;1.90;;;1.00;;
26756;SDS011;23848;49.798;10.228;2022-10-16T01:58:47;1.80;;;0.90;;
26756;SDS011;23848;49.798;10.228;2022-10-16T02:02:09;2.55;;;0.98;;
26756;SDS011;23848;49.798;10.228;2022-10-16T02:07:19;2.13;;;1.08;;
26756;SDS011;23848;49.798;10.228;2022-10-16T02:10:29;2.10;;;1.30;;
26756;SDS011;23848;49.798;10.228;2022-10-16T02:13:34;2.30;;;1.10;;
26756;SDS011;23848;49.798;10.228;2022-10-16T02:16:43;4.40;;;1.13;;
26756;SDS011;23848;49.798;10.228;2022-10-16T02:19:49;2.20;;;1.20;;
26756;SDS011;23848;49.798;10.228;2022-10-16T02:22:50;14.93;;;8.27;;
26756;SDS011;23848;49.798;10.228;2022-10-16T02:28:31;14.07;;;7.75;;
26756;SDS011;23848;49.798;10.228;2022-10-16T03:29:54;2.45;;;1.40;;
26756;SDS011;23848;49.798;10.228;2022-10-16T05:03:14;4.35;;;1.60;;
26756;SDS011;23848;49.798;10.228;2022-10-16T05:06:09;3.38;;;1.60;;
26756;SDS011;23848;49.798;10.228;2022-10-16T05:17:12;3.35;;;1.30;;
26756;SDS011;23848;49.798;10.228;2022-10-16T05:33:28;4.03;;;1.60;;
26756;SDS011;23848;49.798;10.228;2022-10-16T05:37:52;3.70;;;1.55;;
26756;SDS011;23848;49.798;10.228;2022-10-16T18:21:59;9.07;;;5.28;;
26756;SDS011;23848;49.798;10.228;2022-10-16T18:31:51;8.00;;;6.35;;
26756;SDS011;23848;49.798;10.228;2022-10-16T19:28:53;4.75;;;3.60;;
26756;SDS011;23848;49.798;10.228;2022-10-16T19:31:43;5.95;;;4.25;;
26756;SDS011;23848;49.798;10.228;2022-10-16T19:34:35;7.57;;;4.50;;
26756;SDS011;23848;49.798;10.228;2022-10-16T19:37:17;5.90;;;3.72;;
26756;SDS011;23848;49.798;10.228;2022-10-16T19:39:57;5.68;;;3.47;;
26756;SDS011;23848;49.798;10.228;2022-10-16T19:42:28;7.10;;;3.20;;
26756;SDS011;23848;49.798;10.228;2022-10-16T19:45:00;5.72;;;3.17;;
26756;SDS011;23848;49.798;10.228;2022-10-16T19:47:34;4.45;;;2.55;;
26756;SDS011;23848;49.798;10.228;2022-10-16T19:53:04;3.58;;;2.38;;
26756;SDS011;23848;49.798;10.228;2022-10-16T19:55:59;3.13;;;2.30;;
26756;SDS011;23848;49.798;10.228;2022-10-16T19:58:51;3.22;;;1.95;;
26756;SDS011;23848;49.798;10.228;2022-10-16T20:01:42;4.35;;;2.75;;
26756;SDS011;23848;49.798;10.228;2022-10-16T20:04:12;11.30;;;7.78;;
26756;SDS011;23848;49.798;10.228;2022-10-16T20:07:02;10.07;;;6.45;;
26756;SDS011;23848;49.798;10.228;2022-10-16T20:09:45;7.28;;;5.40;;
26756;SDS011;23848;49.798;10.228;2022-10-16T20:12:24;6.97;;;5.00;;
26756;SDS011;23848;49.798;10.228;2022-10-16T20:14:58;7.10;;;4.63;;
26756;SDS011;23848;49.798;10.228;2022-10-16T20:17:33;7.20;;;4.17;;
26756;SDS011;23848;49.798;10.228;2022-10-16T20:20:04;5.57;;;3.53;;
26756;SDS011;23848;49.798;10.228;2022-10-16T20:22:44;13.20;;;4.38;;
26756;SDS011;23848;49.798;10.228;2022-10-16T20:25:14;5.35;;;3.88;;
26756;SDS011;23848;49.798;10.228;2022-10-16T20:27:56;9.50;;;4.30;;
26756;SDS011;23848;49.798;10.228;2022-10-16T20:30:34;5.85;;;3.70;;
26756;SDS011;23848;49.798;10.228;2022-10-16T20:33:07;5.25;;;3.80;;
26756;SDS011;23848;49.798;10.228;2022-10-16T20:35:55;5.72;;;3.72;;
26756;SDS011;23848;49.798;10.228;2022-10-16T20:38:41;8.02;;;5.20;;
26756;SDS011;23848;49.798;10.228;2022-10-16T20:41:16;6.95;;;5.63;;
26756;SDS011;23848;49.798;10.228;2022-10-16T20:43:49;7.53;;;5.88;;
26756;SDS011;23848;49.798;10.228;2022-10-16T20:46:27;7.57;;;5.38;;
26756;SDS011;23848;49.798;10.228;2022-10-16T20:49:06;8.48;;;6.38;;
26756;SDS011;23848;49.798;10.228;2022-10-16T20:52:20;8.98;;;6.00;;
26756;SDS011;23848;49.798;10.228;2022-10-16T20:55:43;10.30;;;6.22;;
26756;SDS011;23848;49.798;10.228;2022-10-16T21:02:02;10.15;;;5.93;;
26756;SDS011;23848;49.798;10.228;2022-10-16T21:04:53;7.65;;;5.93;;
26756;SDS011;23848;49.798;10.228;2022-10-16T21:07:49;7.95;;;5.70;;
26756;SDS011;23848;49.798;10.228;2022-10-16T21:10:37;8.15;;;6.05;;
26756;SDS011;23848;49.798;10.228;2022-10-16T21:13:21;8.80;;;6.18;;
26756;SDS011;23848;49.798;10.228;2022-10-16T21:19:08;7.97;;;5.57;;
26756;SDS011;23848;49.798;10.228;2022-10-16T21:21:47;7.95;;;5.00;;
26756;SDS011;23848;49.798;10.228;2022-10-16T21:24:38;7.05;;;4.93;;
26756;SDS011;23848;49.798;10.228;2022-10-16T21:27:19;8.30;;;5.43;;
26756;SDS011;23848;49.798;10.228;2022-10-16T21:30:08;8.10;;;5.40;;
26756;SDS011;23848;49.798;10.228;2022-10-16T21:32:50;8.13;;;5.07;;
26756;SDS011;23848;49.798;10.228;2022-10-16T21:35:22;7.82;;;5.57;;
26756;SDS011;23848;49.798;10.228;2022-10-16T21:38:16;11.60;;;6.80;;
26756;SDS011;23848;49.798;10.228;2022-10-16T21:41:19;6.28;;;4.25;;
26756;SDS011;23848;49.798;10.228;2022-10-16T21:43:59;5.10;;;2.95;;
26756;SDS011;23848;49.798;10.228;2022-10-16T21:46:43;5.03;;;3.60;;
26756;SDS011;23848;49.798;10.228;2022-10-16T21:49:27;4.22;;;2.83;;
26756;SDS011;23848;49.798;10.228;2022-10-16T21:51:58;4.55;;;2.97;;
26756;SDS011;23848;49.798;10.228;2022-10-16T21:54:35;6.50;;;3.85;;
26756;SDS011;23848;49.798;10.228;2022-10-16T21:57:12;5.88;;;3.75;;
26756;SDS011;23848;49.798;10.228;2022-10-16T21:59:51;7.07;;;3.78;;
26756;SDS011;23848;49.798;10.228;2022-10-16T22:02:37;4.60;;;3.22;;
26756;SDS011;23848;49.798;10.228;2022-10-16T22:05:17;6.13;;;3.83;;
26756;SDS011;23848;49.798;10.228;2022-10-16T22:07:49;4.72;;;3.20;;
26756;SDS011;23848;49.798;10.228;2022-10-16T22:10:28;4.82;;;3.35;;
26756;SDS011;23848;49.798;10.228;2022-10-16T22:13:07;4.82;;;3.25;;
26756;SDS011;23848;49.798;10.228;2022-10-16T22:18:51;7.10;;;3.65;;
26756;SDS011;23848;49.798;10.228;2022-10-16T22:21:32;3.90;;;3.05;;
26756;SDS011;23848;49.798;10.228;2022-10-16T22:24:07;5.85;;;3.75;;
26756;SDS011;23848;49.798;10.228;2022-10-16T22:26:52;7.53;;;3.90;;
26756;SDS011;23848;49.798;10.228;2022-10-16T22:29:32;7.75;;;3.90;;
26756;SDS011;23848;49.798;10.228;2022-10-16T22:32:15;11.38;;;4.28;;
26756;SDS011;23848;49.798;10.228;2022-10-16T22:34:56;12.23;;;4.35;;
26756;SDS011;23848;49.798;10.228;2022-10-16T22:37:53;6.97;;;4.47;;
26756;SDS011;23848;49.798;10.228;2022-10-16T22:43:30;5.97;;;3.83;;
26756;SDS011;23848;49.798;10.228;2022-10-16T22:46:11;5.88;;;3.72;;
26756;SDS011;23848;49.798;10.228;2022-10-16T22:49:13;6.32;;;4.20;;
26756;SDS011;23848;49.798;10.228;2022-10-16T22:51:47;7.18;;;3.80;;
26756;SDS011;23848;49.798;10.228;2022-10-16T22:54:23;5.15;;;3.55;;
26756;SDS011;23848;49.798;10.228;2022-10-16T22:57:18;7.25;;;4.07;;
26756;SDS011;23848;49.798;10.228;2022-10-16T22:59:52;5.72;;;4.05;;
26756;SDS011;23848;49.798;10.228;2022-10-16T23:02:23;5.45;;;4.05;;
26756;SDS011;23848;49.798;10.228;2022-10-16T23:04:59;5.45;;;3.70;;
26756;SDS011;23848;49.798;10.228;2022-10-16T23:07:37;5.22;;;3.97;;
26756;SDS011;23848;49.798;10.228;2022-10-16T23:10:20;5.55;;;3.95;;
26756;SDS011;23848;49.798;10.228;2022-10-16T23:12:58;4.63;;;3.78;;
26756;SDS011;23848;49.798;10.228;2022-10-16T23:18:25;5.07;;;3.65;;
26756;SDS011;23848;49.798;10.228;2022-10-16T23:21:10;6.32;;;3.45;;
26756;SDS011;23848;49.798;10.228;2022-10-16T23:23:53;5.35;;;3.50;;
26756;SDS011;23848;49.798;10.228;2022-10-16T23:26:29;5.63;;;3.50;;
26756;SDS011;23848;49.798;10.228;2022-10-16T23:29:03;5.78;;;3.65;;
26756;SDS011;23848;49.798;10.228;2022-10-16T23:31:34;8.60;;;4.20;;
26756;SDS011;23848;49.798;10.228;2022-10-16T23:34:11;7.38;;;4.15;;
26756;SDS011;23848;49.798;10.228;2022-10-16T23:36:51;8.23;;;4.70;;
26756;SDS011;23848;49.798;10.228;2022-10-16T23:39:26;9.55;;;4.95;;
26756;SDS011;23848;49.798;10.228;2022-10-16T23:42:00;8.52;;;5.13;;
26756;SDS011;23848;49.798;10.228;2022-10-16T23:44:38;11.52;;;5.28;;
26756;SDS011;23848;49.798;10.228;2022-10-16T23:47:16;10.52;;;5.25;;
26756;SDS011;23848;49.798;10.228;2022-10-16T23:49:46;8.15;;;5.30;;
26756;SDS011;23848;49.798;10.228;2022-10-16T23:52:22;12.18;;;6.30;;
26756;SDS011;23848;49.798;10.228;2022-10-16T23:54:51;10.30;;;5.47;;
26756;SDS011;23848;49.798;10.228;2022-10-16T23:57:26;6.55;;;4.25;;
